sensor_id;sensor_type;location;lat;lon;timestamp;temperature;humidity
79571;DHT22;69034;49.444;7.758;2023-08-12T00:00:10;24.80;54.80
79571;DHT22;69034;49.444;7.758;2023-08-12T00:04:12;24.80;54.80
79571;DHT22;69034;49.444;7.758;2023-08-12T00:08:15;24.80;54.80
79571;DHT22;69034;49.444;7.758;2023-08-12T00:12:16;24.80;54.80
79571;DHT22;69034;49.444;7.758;2023-08-12T00:16:16;24.80;55.10
79571;DHT22;69034;49.444;7.758;2023-08-12T00:20:17;24.70;55.10
79571;DHT22;69034;49.444;7.758;2023-08-12T00:24:18;24.70;55.20
79571;DHT22;69034;49.444;7.758;2023-08-12T00:28:18;24.70;55.70
79571;DHT22;69034;49.444;7.758;2023-08-12T00:32:19;24.40;57.00
79571;DHT22;69034;49.444;7.758;2023-08-12T00:36:20;24.20;57.50
79571;DHT22;69034;49.444;7.758;2023-08-12T00:40:20;24.10;57.50
79571;DHT22;69034;49.444;7.758;2023-08-12T00:44:21;24.20;57.20
79571;DHT22;69034;49.444;7.758;2023-08-12T00:48:22;24.30;56.90
79571;DHT22;69034;49.444;7.758;2023-08-12T00:52:23;24.30;56.80
79571;DHT22;69034;49.444;7.758;2023-08-12T00:56:26;24.40;56.60
79571;DHT22;69034;49.444;7.758;2023-08-12T01:00:27;24.30;56.60
79571;DHT22;69034;49.444;7.758;2023-08-12T01:04:27;24.30;56.70
79571;DHT22;69034;49.444;7.758;2023-08-12T01:08:30;24.20;56.80
79571;DHT22;69034;49.444;7.758;2023-08-12T01:12:39;24.20;56.80
79571;DHT22;69034;49.444;7.758;2023-08-12T01:16:47;24.10;56.80
79571;DHT22;69034;49.444;7.758;2023-08-12T01:20:48;24.10;56.90
79571;DHT22;69034;49.444;7.758;2023-08-12T01:24:51;24.10;57.00
79571;DHT22;69034;49.444;7.758;2023-08-12T01:28:52;24.00;57.10
79571;DHT22;69034;49.444;7.758;2023-08-12T01:33:08;23.90;57.50
79571;DHT22;69034;49.444;7.758;2023-08-12T01:37:16;23.80;58.10
79571;DHT22;69034;49.444;7.758;2023-08-12T01:41:18;23.70;58.50
79571;DHT22;69034;49.444;7.758;2023-08-12T01:45:20;23.60;58.60
79571;DHT22;69034;49.444;7.758;2023-08-12T01:49:21;23.50;58.70
79571;DHT22;69034;49.444;7.758;2023-08-12T01:53:23;23.50;59.00
79571;DHT22;69034;49.444;7.758;2023-08-12T01:57:25;23.50;59.60
79571;DHT22;69034;49.444;7.758;2023-08-12T02:01:26;23.40;60.10
79571;DHT22;69034;49.444;7.758;2023-08-12T02:05:26;23.40;60.60
79571;DHT22;69034;49.444;7.758;2023-08-12T02:09:27;23.30;60.70
79571;DHT22;69034;49.444;7.758;2023-08-12T02:13:27;23.30;60.90
79571;DHT22;69034;49.444;7.758;2023-08-12T02:17:28;23.30;61.00
79571;DHT22;69034;49.444;7.758;2023-08-12T02:21:29;23.30;61.50
79571;DHT22;69034;49.444;7.758;2023-08-12T02:25:31;23.20;62.10
79571;DHT22;69034;49.444;7.758;2023-08-12T02:29:32;23.20;62.30
79571;DHT22;69034;49.444;7.758;2023-08-12T02:33:33;23.20;62.60
79571;DHT22;69034;49.444;7.758;2023-08-12T02:37:35;23.40;62.80
79571;DHT22;69034;49.444;7.758;2023-08-12T02:41:35;23.50;62.90
79571;DHT22;69034;49.444;7.758;2023-08-12T02:45:36;23.70;63.10
79571;DHT22;69034;49.444;7.758;2023-08-12T02:49:36;23.70;63.20
79571;DHT22;69034;49.444;7.758;2023-08-12T02:53:37;23.80;63.50
79571;DHT22;69034;49.444;7.758;2023-08-12T02:57:38;23.80;63.50
79571;DHT22;69034;49.444;7.758;2023-08-12T03:01:41;23.90;63.70
79571;DHT22;69034;49.444;7.758;2023-08-12T03:05:46;23.90;63.80
79571;DHT22;69034;49.444;7.758;2023-08-12T03:09:47;23.90;63.90
79571;DHT22;69034;49.444;7.758;2023-08-12T03:13:47;23.90;63.90
79571;DHT22;69034;49.444;7.758;2023-08-12T03:17:48;23.80;64.30
79571;DHT22;69034;49.444;7.758;2023-08-12T03:21:49;23.80;64.70
79571;DHT22;69034;49.444;7.758;2023-08-12T03:25:49;23.80;64.90
79571;DHT22;69034;49.444;7.758;2023-08-12T03:29:50;23.70;65.20
79571;DHT22;69034;49.444;7.758;2023-08-12T03:33:51;23.70;65.30
79571;DHT22;69034;49.444;7.758;2023-08-12T03:37:51;23.70;65.50
79571;DHT22;69034;49.444;7.758;2023-08-12T03:41:55;23.80;65.60
79571;DHT22;69034;49.444;7.758;2023-08-12T03:45:56;23.80;65.70
79571;DHT22;69034;49.444;7.758;2023-08-12T03:49:57;23.80;65.60
79571;DHT22;69034;49.444;7.758;2023-08-12T03:53:58;23.70;65.70
79571;DHT22;69034;49.444;7.758;2023-08-12T03:57:59;23.70;65.80
79571;DHT22;69034;49.444;7.758;2023-08-12T04:02:00;23.70;65.90
79571;DHT22;69034;49.444;7.758;2023-08-12T04:06:00;23.70;65.80
79571;DHT22;69034;49.444;7.758;2023-08-12T04:10:01;23.70;65.90
79571;DHT22;69034;49.444;7.758;2023-08-12T04:14:02;23.60;65.90
79571;DHT22;69034;49.444;7.758;2023-08-12T04:18:03;23.50;66.00
79571;DHT22;69034;49.444;7.758;2023-08-12T04:22:04;23.40;66.10
79571;DHT22;69034;49.444;7.758;2023-08-12T04:26:04;23.40;66.20
79571;DHT22;69034;49.444;7.758;2023-08-12T04:30:05;23.30;66.20
79571;DHT22;69034;49.444;7.758;2023-08-12T04:34:06;23.20;66.40
79571;DHT22;69034;49.444;7.758;2023-08-12T04:38:07;23.20;66.60
79571;DHT22;69034;49.444;7.758;2023-08-12T04:42:08;23.10;67.00
79571;DHT22;69034;49.444;7.758;2023-08-12T04:46:09;22.90;67.50
79571;DHT22;69034;49.444;7.758;2023-08-12T04:50:10;22.90;67.80
79571;DHT22;69034;49.444;7.758;2023-08-12T04:54:10;22.80;67.80
79571;DHT22;69034;49.444;7.758;2023-08-12T04:58:11;22.80;67.80
79571;DHT22;69034;49.444;7.758;2023-08-12T05:02:12;22.80;67.80
79571;DHT22;69034;49.444;7.758;2023-08-12T05:06:13;22.90;67.80
79571;DHT22;69034;49.444;7.758;2023-08-12T05:10:15;22.80;67.80
79571;DHT22;69034;49.444;7.758;2023-08-12T05:14:17;22.90;67.90
79571;DHT22;69034;49.444;7.758;2023-08-12T05:18:17;23.00;67.70
79571;DHT22;69034;49.444;7.758;2023-08-12T05:22:19;23.20;67.50
79571;DHT22;69034;49.444;7.758;2023-08-12T05:26:19;23.30;67.30
79571;DHT22;69034;49.444;7.758;2023-08-12T05:30:21;23.50;67.30
79571;DHT22;69034;49.444;7.758;2023-08-12T05:34:22;23.60;67.20
79571;DHT22;69034;49.444;7.758;2023-08-12T05:38:22;23.70;67.10
79571;DHT22;69034;49.444;7.758;2023-08-12T05:42:23;23.80;67.10
79571;DHT22;69034;49.444;7.758;2023-08-12T05:46:24;23.90;67.20
79571;DHT22;69034;49.444;7.758;2023-08-12T05:50:24;23.90;67.60
79571;DHT22;69034;49.444;7.758;2023-08-12T05:54:25;23.90;67.60
79571;DHT22;69034;49.444;7.758;2023-08-12T05:58:26;24.10;67.50
79571;DHT22;69034;49.444;7.758;2023-08-12T06:02:26;24.20;67.20
79571;DHT22;69034;49.444;7.758;2023-08-12T06:06:27;24.40;67.10
79571;DHT22;69034;49.444;7.758;2023-08-12T06:10:27;24.50;67.00
79571;DHT22;69034;49.444;7.758;2023-08-12T06:14:28;24.60;66.80
79571;DHT22;69034;49.444;7.758;2023-08-12T06:18:29;24.80;66.50
79571;DHT22;69034;49.444;7.758;2023-08-12T06:22:30;25.20;65.80
79571;DHT22;69034;49.444;7.758;2023-08-12T06:26:30;25.60;65.10
79571;DHT22;69034;49.444;7.758;2023-08-12T06:30:31;26.00;64.50
79571;DHT22;69034;49.444;7.758;2023-08-12T06:34:31;26.50;63.70
79571;DHT22;69034;49.444;7.758;2023-08-12T06:38:32;26.70;63.40
79571;DHT22;69034;49.444;7.758;2023-08-12T06:42:33;26.80;63.30
79571;DHT22;69034;49.444;7.758;2023-08-12T06:46:34;26.80;63.20
79571;DHT22;69034;49.444;7.758;2023-08-12T06:50:35;26.80;63.30
79571;DHT22;69034;49.444;7.758;2023-08-12T06:54:36;26.80;63.30
79571;DHT22;69034;49.444;7.758;2023-08-12T06:58:37;26.80;63.20
79571;DHT22;69034;49.444;7.758;2023-08-12T07:02:37;26.90;63.00
79571;DHT22;69034;49.444;7.758;2023-08-12T07:06:40;26.90;63.10
79571;DHT22;69034;49.444;7.758;2023-08-12T07:10:41;26.90;63.20
79571;DHT22;69034;49.444;7.758;2023-08-12T07:14:42;26.90;63.30
79571;DHT22;69034;49.444;7.758;2023-08-12T07:18:42;27.10;62.90
79571;DHT22;69034;49.444;7.758;2023-08-12T07:22:43;27.30;62.50
79571;DHT22;69034;49.444;7.758;2023-08-12T07:26:44;27.80;61.70
79571;DHT22;69034;49.444;7.758;2023-08-12T07:30:44;28.20;61.20
79571;DHT22;69034;49.444;7.758;2023-08-12T07:34:47;28.90;60.00
79571;DHT22;69034;49.444;7.758;2023-08-12T07:38:48;29.30;59.20
79571;DHT22;69034;49.444;7.758;2023-08-12T07:42:49;29.60;59.00
79571;DHT22;69034;49.444;7.758;2023-08-12T07:46:49;29.40;59.40
79571;DHT22;69034;49.444;7.758;2023-08-12T07:50:57;29.00;59.90
79571;DHT22;69034;49.444;7.758;2023-08-12T07:54:58;28.90;59.50
79571;DHT22;69034;49.444;7.758;2023-08-12T07:58:58;29.00;59.30
79571;DHT22;69034;49.444;7.758;2023-08-12T08:02:59;28.90;59.60
79571;DHT22;69034;49.444;7.758;2023-08-12T08:07:00;29.10;59.30
79571;DHT22;69034;49.444;7.758;2023-08-12T08:11:01;29.20;59.00
79571;DHT22;69034;49.444;7.758;2023-08-12T08:15:02;29.50;58.50
79571;DHT22;69034;49.444;7.758;2023-08-12T08:19:03;29.40;58.80
79571;DHT22;69034;49.444;7.758;2023-08-12T08:23:04;30.00;57.70
79571;DHT22;69034;49.444;7.758;2023-08-12T08:27:05;30.60;56.80
79571;DHT22;69034;49.444;7.758;2023-08-12T08:31:05;30.60;56.90
79571;DHT22;69034;49.444;7.758;2023-08-12T08:35:06;30.90;56.50
79571;DHT22;69034;49.444;7.758;2023-08-12T08:39:07;31.10;56.00
79571;DHT22;69034;49.444;7.758;2023-08-12T08:43:08;31.50;55.30
79571;DHT22;69034;49.444;7.758;2023-08-12T08:47:09;31.50;55.40
79571;DHT22;69034;49.444;7.758;2023-08-12T08:51:11;31.80;55.20
79571;DHT22;69034;49.444;7.758;2023-08-12T08:55:12;32.60;54.20
79571;DHT22;69034;49.444;7.758;2023-08-12T08:59:13;33.00;53.40
79571;DHT22;69034;49.444;7.758;2023-08-12T09:03:14;33.20;52.90
79571;DHT22;69034;49.444;7.758;2023-08-12T09:07:15;33.90;51.60
79571;DHT22;69034;49.444;7.758;2023-08-12T09:11:17;34.20;50.70
79571;DHT22;69034;49.444;7.758;2023-08-12T09:15:18;34.30;50.20
79571;DHT22;69034;49.444;7.758;2023-08-12T09:19:19;34.70;49.70
79571;DHT22;69034;49.444;7.758;2023-08-12T09:23:20;34.70;49.10
79571;DHT22;69034;49.444;7.758;2023-08-12T09:27:20;34.10;49.30
79571;DHT22;69034;49.444;7.758;2023-08-12T09:31:28;33.40;50.10
79571;DHT22;69034;49.444;7.758;2023-08-12T09:35:41;32.40;51.10
79571;DHT22;69034;49.444;7.758;2023-08-12T09:39:43;31.80;51.90
79571;DHT22;69034;49.444;7.758;2023-08-12T09:43:44;31.40;52.20
79571;DHT22;69034;49.444;7.758;2023-08-12T09:47:45;31.10;52.80
79571;DHT22;69034;49.444;7.758;2023-08-12T09:51:45;30.00;54.80
79571;DHT22;69034;49.444;7.758;2023-08-12T09:55:47;29.30;56.30
79571;DHT22;69034;49.444;7.758;2023-08-12T09:59:49;28.90;57.00
79571;DHT22;69034;49.444;7.758;2023-08-12T10:03:51;29.10;56.50
79571;DHT22;69034;49.444;7.758;2023-08-12T10:07:53;29.00;57.40
79571;DHT22;69034;49.444;7.758;2023-08-12T10:11:53;28.70;58.20
79571;DHT22;69034;49.444;7.758;2023-08-12T10:15:55;28.30;59.10
79571;DHT22;69034;49.444;7.758;2023-08-12T10:19:57;28.40;59.30
79571;DHT22;69034;49.444;7.758;2023-08-12T10:23:59;28.40;59.40
79571;DHT22;69034;49.444;7.758;2023-08-12T10:28:01;28.00;60.10
79571;DHT22;69034;49.444;7.758;2023-08-12T10:32:02;27.80;60.40
79571;DHT22;69034;49.444;7.758;2023-08-12T10:36:03;27.70;60.50
79571;DHT22;69034;49.444;7.758;2023-08-12T10:40:05;27.40;61.10
79571;DHT22;69034;49.444;7.758;2023-08-12T10:44:09;27.00;62.20
79571;DHT22;69034;49.444;7.758;2023-08-12T10:48:17;26.70;62.70
79571;DHT22;69034;49.444;7.758;2023-08-12T10:52:31;26.60;62.80
79571;DHT22;69034;49.444;7.758;2023-08-12T11:01:18;27.20;61.30
79571;DHT22;69034;49.444;7.758;2023-08-12T11:05:19;29.70;57.60
79571;DHT22;69034;49.444;7.758;2023-08-12T11:09:20;30.30;55.60
79571;DHT22;69034;49.444;7.758;2023-08-12T11:13:21;30.60;55.90
79571;DHT22;69034;49.444;7.758;2023-08-12T11:17:33;34.30;50.20
79571;DHT22;69034;49.444;7.758;2023-08-12T11:21:36;36.20;47.80
79571;DHT22;69034;49.444;7.758;2023-08-12T11:25:39;37.50;46.50
79571;DHT22;69034;49.444;7.758;2023-08-12T11:29:40;38.70;44.50
79571;DHT22;69034;49.444;7.758;2023-08-12T11:33:42;37.80;44.90
79571;DHT22;69034;49.444;7.758;2023-08-12T11:37:45;36.40;46.30
79571;DHT22;69034;49.444;7.758;2023-08-12T11:41:46;35.80;47.50
79571;DHT22;69034;49.444;7.758;2023-08-12T11:45:46;38.80;41.70
79571;DHT22;69034;49.444;7.758;2023-08-12T11:49:47;41.50;38.40
79571;DHT22;69034;49.444;7.758;2023-08-12T11:53:48;42.70;37.70
79571;DHT22;69034;49.444;7.758;2023-08-12T11:57:50;43.60;36.70
79571;DHT22;69034;49.444;7.758;2023-08-12T12:01:51;44.60;34.90
79571;DHT22;69034;49.444;7.758;2023-08-12T12:05:55;45.10;34.20
79571;DHT22;69034;49.444;7.758;2023-08-12T12:09:56;45.20;33.70
79571;DHT22;69034;49.444;7.758;2023-08-12T12:14:01;42.20;37.10
79571;DHT22;69034;49.444;7.758;2023-08-12T12:18:02;42.80;35.60
79571;DHT22;69034;49.444;7.758;2023-08-12T12:22:03;41.20;35.90
79571;DHT22;69034;49.444;7.758;2023-08-12T12:26:05;40.10;38.10
79571;DHT22;69034;49.444;7.758;2023-08-12T12:30:11;42.30;35.40
79571;DHT22;69034;49.444;7.758;2023-08-12T12:34:12;42.30;34.60
79571;DHT22;69034;49.444;7.758;2023-08-12T12:38:14;41.30;35.20
79571;DHT22;69034;49.444;7.758;2023-08-12T12:42:15;39.80;36.10
79571;DHT22;69034;49.444;7.758;2023-08-12T12:46:16;42.20;33.00
79571;DHT22;69034;49.444;7.758;2023-08-12T12:50:16;42.50;33.20
79571;DHT22;69034;49.444;7.758;2023-08-12T12:54:17;41.40;33.20
79571;DHT22;69034;49.444;7.758;2023-08-12T12:58:18;39.20;35.50
79571;DHT22;69034;49.444;7.758;2023-08-12T13:02:19;39.40;36.10
79571;DHT22;69034;49.444;7.758;2023-08-12T13:06:19;39.70;35.00
79571;DHT22;69034;49.444;7.758;2023-08-12T13:10:20;38.70;36.00
79571;DHT22;69034;49.444;7.758;2023-08-12T13:14:21;39.40;35.40
79571;DHT22;69034;49.444;7.758;2023-08-12T13:18:23;40.10;34.50
79571;DHT22;69034;49.444;7.758;2023-08-12T13:22:23;38.60;36.40
79571;DHT22;69034;49.444;7.758;2023-08-12T13:26:24;37.30;37.90
79571;DHT22;69034;49.444;7.758;2023-08-12T13:30:25;36.00;39.40
79571;DHT22;69034;49.444;7.758;2023-08-12T13:34:26;34.90;40.60
79571;DHT22;69034;49.444;7.758;2023-08-12T13:38:26;33.80;42.10
79571;DHT22;69034;49.444;7.758;2023-08-12T13:42:27;32.80;43.80
79571;DHT22;69034;49.444;7.758;2023-08-12T13:46:27;31.90;44.90
79571;DHT22;69034;49.444;7.758;2023-08-12T13:50:28;31.50;45.40
79571;DHT22;69034;49.444;7.758;2023-08-12T13:54:29;31.40;45.60
79571;DHT22;69034;49.444;7.758;2023-08-12T13:58:30;31.90;44.80
79571;DHT22;69034;49.444;7.758;2023-08-12T14:02:30;32.60;44.00
79571;DHT22;69034;49.444;7.758;2023-08-12T14:06:31;33.00;43.90
79571;DHT22;69034;49.444;7.758;2023-08-12T14:10:31;34.80;41.70
79571;DHT22;69034;49.444;7.758;2023-08-12T14:14:32;37.70;39.70
79571;DHT22;69034;49.444;7.758;2023-08-12T14:18:33;40.30;35.80
79571;DHT22;69034;49.444;7.758;2023-08-12T14:22:34;40.70;35.80
79571;DHT22;69034;49.444;7.758;2023-08-12T14:26:36;41.90;34.20
79571;DHT22;69034;49.444;7.758;2023-08-12T14:30:37;41.20;34.70
79571;DHT22;69034;49.444;7.758;2023-08-12T14:34:38;40.40;35.40
79571;DHT22;69034;49.444;7.758;2023-08-12T14:38:38;40.70;34.90
79571;DHT22;69034;49.444;7.758;2023-08-12T14:42:39;40.60;34.80
79571;DHT22;69034;49.444;7.758;2023-08-12T14:46:40;40.40;34.80
79571;DHT22;69034;49.444;7.758;2023-08-12T14:50:40;39.60;35.20
79571;DHT22;69034;49.444;7.758;2023-08-12T14:54:42;38.50;36.20
79571;DHT22;69034;49.444;7.758;2023-08-12T14:58:42;37.60;36.90
79571;DHT22;69034;49.444;7.758;2023-08-12T15:02:43;36.70;37.90
79571;DHT22;69034;49.444;7.758;2023-08-12T15:06:44;35.90;38.80
79571;DHT22;69034;49.444;7.758;2023-08-12T15:10:44;35.40;39.20
79571;DHT22;69034;49.444;7.758;2023-08-12T15:14:45;35.60;38.90
79571;DHT22;69034;49.444;7.758;2023-08-12T15:18:45;35.70;38.90
79571;DHT22;69034;49.444;7.758;2023-08-12T15:22:46;35.60;39.20
79571;DHT22;69034;49.444;7.758;2023-08-12T15:26:47;35.40;39.70
79571;DHT22;69034;49.444;7.758;2023-08-12T15:30:48;35.30;39.90
79571;DHT22;69034;49.444;7.758;2023-08-12T15:34:49;35.30;40.00
79571;DHT22;69034;49.444;7.758;2023-08-12T15:38:50;35.00;40.20
79571;DHT22;69034;49.444;7.758;2023-08-12T15:42:51;34.80;40.20
79571;DHT22;69034;49.444;7.758;2023-08-12T15:46:51;34.80;40.30
79571;DHT22;69034;49.444;7.758;2023-08-12T15:50:52;35.30;39.70
79571;DHT22;69034;49.444;7.758;2023-08-12T15:54:53;35.10;40.10
79571;DHT22;69034;49.444;7.758;2023-08-12T15:58:53;34.60;40.80
79571;DHT22;69034;49.444;7.758;2023-08-12T16:02:54;34.00;41.50
79571;DHT22;69034;49.444;7.758;2023-08-12T16:06:55;33.70;41.90
79571;DHT22;69034;49.444;7.758;2023-08-12T16:10:55;33.90;41.80
79571;DHT22;69034;49.444;7.758;2023-08-12T16:14:56;33.80;41.80
79571;DHT22;69034;49.444;7.758;2023-08-12T16:18:57;33.70;42.00
79571;DHT22;69034;49.444;7.758;2023-08-12T16:22:58;33.60;42.20
79571;DHT22;69034;49.444;7.758;2023-08-12T16:26:59;33.40;42.40
79571;DHT22;69034;49.444;7.758;2023-08-12T16:31:00;33.40;42.40
79571;DHT22;69034;49.444;7.758;2023-08-12T16:35:00;33.50;42.20
79571;DHT22;69034;49.444;7.758;2023-08-12T16:39:01;33.60;42.10
79571;DHT22;69034;49.444;7.758;2023-08-12T16:43:02;33.50;42.30
79571;DHT22;69034;49.444;7.758;2023-08-12T16:47:03;33.60;42.30
79571;DHT22;69034;49.444;7.758;2023-08-12T16:51:03;33.80;42.10
79571;DHT22;69034;49.444;7.758;2023-08-12T16:55:05;34.00;41.70
79571;DHT22;69034;49.444;7.758;2023-08-12T16:59:05;34.10;41.60
79571;DHT22;69034;49.444;7.758;2023-08-12T17:03:06;34.00;41.80
79571;DHT22;69034;49.444;7.758;2023-08-12T17:07:07;33.70;42.10
79571;DHT22;69034;49.444;7.758;2023-08-12T17:11:07;33.50;42.20
79571;DHT22;69034;49.444;7.758;2023-08-12T17:15:09;33.30;42.40
79571;DHT22;69034;49.444;7.758;2023-08-12T17:19:10;33.10;42.50
79571;DHT22;69034;49.444;7.758;2023-08-12T17:23:10;33.00;42.50
79571;DHT22;69034;49.444;7.758;2023-08-12T17:27:11;33.10;42.40
79571;DHT22;69034;49.444;7.758;2023-08-12T17:31:11;33.60;42.00
79571;DHT22;69034;49.444;7.758;2023-08-12T17:35:13;33.70;41.90
79571;DHT22;69034;49.444;7.758;2023-08-12T17:39:13;33.70;42.00
79571;DHT22;69034;49.444;7.758;2023-08-12T17:43:14;33.40;42.30
79571;DHT22;69034;49.444;7.758;2023-08-12T17:47:15;33.00;42.90
79571;DHT22;69034;49.444;7.758;2023-08-12T17:51:17;32.50;43.40
79571;DHT22;69034;49.444;7.758;2023-08-12T17:55:18;32.10;44.00
79571;DHT22;69034;49.444;7.758;2023-08-12T17:59:18;31.70;44.50
79571;DHT22;69034;49.444;7.758;2023-08-12T18:03:19;31.40;44.80
79571;DHT22;69034;49.444;7.758;2023-08-12T18:07:19;31.20;45.20
79571;DHT22;69034;49.444;7.758;2023-08-12T18:11:21;30.90;45.60
79571;DHT22;69034;49.444;7.758;2023-08-12T18:15:23;30.70;46.10
79571;DHT22;69034;49.444;7.758;2023-08-12T18:19:23;30.50;46.30
79571;DHT22;69034;49.444;7.758;2023-08-12T18:23:24;30.30;46.80
79571;DHT22;69034;49.444;7.758;2023-08-12T18:27:25;30.10;47.20
79571;DHT22;69034;49.444;7.758;2023-08-12T18:31:25;29.90;47.60
79571;DHT22;69034;49.444;7.758;2023-08-12T18:35:26;29.70;47.90
79571;DHT22;69034;49.444;7.758;2023-08-12T18:39:27;29.60;48.10
79571;DHT22;69034;49.444;7.758;2023-08-12T18:43:27;29.40;48.50
79571;DHT22;69034;49.444;7.758;2023-08-12T18:47:28;29.20;48.90
79571;DHT22;69034;49.444;7.758;2023-08-12T18:51:29;29.10;49.30
79571;DHT22;69034;49.444;7.758;2023-08-12T18:55:29;28.90;49.60
79571;DHT22;69034;49.444;7.758;2023-08-12T18:59:30;28.70;49.90
79571;DHT22;69034;49.444;7.758;2023-08-12T19:03:30;28.60;50.20
79571;DHT22;69034;49.444;7.758;2023-08-12T19:07:31;28.40;50.50
79571;DHT22;69034;49.444;7.758;2023-08-12T19:11:32;28.30;50.80
79571;DHT22;69034;49.444;7.758;2023-08-12T19:15:32;28.10;51.30
79571;DHT22;69034;49.444;7.758;2023-08-12T19:19:33;27.90;51.80
79571;DHT22;69034;49.444;7.758;2023-08-12T19:23:33;27.80;52.30
79571;DHT22;69034;49.444;7.758;2023-08-12T19:27:34;27.60;52.60
79571;DHT22;69034;49.444;7.758;2023-08-12T19:31:35;27.50;53.00
79571;DHT22;69034;49.444;7.758;2023-08-12T19:35:36;27.30;53.60
79571;DHT22;69034;49.444;7.758;2023-08-12T19:39:36;27.20;53.80
79571;DHT22;69034;49.444;7.758;2023-08-12T19:43:37;27.10;54.00
79571;DHT22;69034;49.444;7.758;2023-08-12T19:47:42;27.00;54.30
79571;DHT22;69034;49.444;7.758;2023-08-12T19:51:43;26.90;54.90
79571;DHT22;69034;49.444;7.758;2023-08-12T19:55:44;26.80;55.50
79571;DHT22;69034;49.444;7.758;2023-08-12T19:59:45;26.70;55.70
79571;DHT22;69034;49.444;7.758;2023-08-12T20:03:47;26.60;56.10
79571;DHT22;69034;49.444;7.758;2023-08-12T20:07:49;26.40;56.70
79571;DHT22;69034;49.444;7.758;2023-08-12T20:11:50;26.30;57.10
79571;DHT22;69034;49.444;7.758;2023-08-12T20:15:51;26.20;57.40
79571;DHT22;69034;49.444;7.758;2023-08-12T20:20:00;26.00;58.00
79571;DHT22;69034;49.444;7.758;2023-08-12T20:24:01;25.90;58.10
79571;DHT22;69034;49.444;7.758;2023-08-12T20:28:03;25.60;58.60
79571;DHT22;69034;49.444;7.758;2023-08-12T20:32:05;25.50;58.80
79571;DHT22;69034;49.444;7.758;2023-08-12T20:36:06;25.30;59.20
79571;DHT22;69034;49.444;7.758;2023-08-12T20:40:08;25.30;59.40
79571;DHT22;69034;49.444;7.758;2023-08-12T20:44:08;25.20;59.50
79571;DHT22;69034;49.444;7.758;2023-08-12T20:48:09;25.10;59.80
79571;DHT22;69034;49.444;7.758;2023-08-12T20:52:12;25.10;59.90
79571;DHT22;69034;49.444;7.758;2023-08-12T20:56:13;25.00;60.20
79571;DHT22;69034;49.444;7.758;2023-08-12T21:00:14;24.90;60.70
79571;DHT22;69034;49.444;7.758;2023-08-12T21:04:15;24.90;61.00
79571;DHT22;69034;49.444;7.758;2023-08-12T21:08:16;24.90;61.00
79571;DHT22;69034;49.444;7.758;2023-08-12T21:12:18;24.80;61.30
79571;DHT22;69034;49.444;7.758;2023-08-12T21:16:19;24.80;61.50
79571;DHT22;69034;49.444;7.758;2023-08-12T21:20:20;24.80;61.50
79571;DHT22;69034;49.444;7.758;2023-08-12T21:24:20;24.70;61.60
79571;DHT22;69034;49.444;7.758;2023-08-12T21:28:21;24.70;61.70
79571;DHT22;69034;49.444;7.758;2023-08-12T21:32:23;24.60;61.70
79571;DHT22;69034;49.444;7.758;2023-08-12T21:36:23;24.60;61.90
79571;DHT22;69034;49.444;7.758;2023-08-12T21:40:24;24.50;62.00
79571;DHT22;69034;49.444;7.758;2023-08-12T21:44:25;24.50;62.00
79571;DHT22;69034;49.444;7.758;2023-08-12T21:48:26;24.50;62.10
79571;DHT22;69034;49.444;7.758;2023-08-12T21:52:27;24.40;62.20
79571;DHT22;69034;49.444;7.758;2023-08-12T21:56:27;24.40;62.20
79571;DHT22;69034;49.444;7.758;2023-08-12T22:00:28;24.40;62.30
79571;DHT22;69034;49.444;7.758;2023-08-12T22:04:29;24.40;62.30
79571;DHT22;69034;49.444;7.758;2023-08-12T22:08:30;24.40;62.60
79571;DHT22;69034;49.444;7.758;2023-08-12T22:12:30;24.60;62.60
79571;DHT22;69034;49.444;7.758;2023-08-12T22:16:31;24.70;62.60
79571;DHT22;69034;49.444;7.758;2023-08-12T22:20:31;24.70;62.70
79571;DHT22;69034;49.444;7.758;2023-08-12T22:24:32;24.70;62.50
79571;DHT22;69034;49.444;7.758;2023-08-12T22:28:33;24.80;62.30
79571;DHT22;69034;49.444;7.758;2023-08-12T22:32:33;24.90;62.30
79571;DHT22;69034;49.444;7.758;2023-08-12T22:36:34;24.90;62.20
79571;DHT22;69034;49.444;7.758;2023-08-12T22:40:35;24.90;62.20
79571;DHT22;69034;49.444;7.758;2023-08-12T22:44:35;24.90;62.30
79571;DHT22;69034;49.444;7.758;2023-08-12T22:48:36;24.80;62.40
79571;DHT22;69034;49.444;7.758;2023-08-12T22:52:37;24.70;62.80
79571;DHT22;69034;49.444;7.758;2023-08-12T22:56:38;24.70;62.80
79571;DHT22;69034;49.444;7.758;2023-08-12T23:00:39;24.60;63.00
79571;DHT22;69034;49.444;7.758;2023-08-12T23:04:39;24.60;63.20
79571;DHT22;69034;49.444;7.758;2023-08-12T23:08:40;24.50;63.40
79571;DHT22;69034;49.444;7.758;2023-08-12T23:12:41;24.40;63.50
79571;DHT22;69034;49.444;7.758;2023-08-12T23:16:41;24.40;63.60
79571;DHT22;69034;49.444;7.758;2023-08-12T23:20:42;24.30;63.70
79571;DHT22;69034;49.444;7.758;2023-08-12T23:24:42;24.30;63.90
79571;DHT22;69034;49.444;7.758;2023-08-12T23:28:43;24.20;63.90
79571;DHT22;69034;49.444;7.758;2023-08-12T23:32:44;24.20;64.10
79571;DHT22;69034;49.444;7.758;2023-08-12T23:36:44;24.10;64.30
79571;DHT22;69034;49.444;7.758;2023-08-12T23:40:45;24.10;64.40
79571;DHT22;69034;49.444;7.758;2023-08-12T23:44:46;24.00;64.50
79571;DHT22;69034;49.444;7.758;2023-08-12T23:48:46;24.00;64.60
79571;DHT22;69034;49.444;7.758;2023-08-12T23:52:47;23.90;64.60
79571;DHT22;69034;49.444;7.758;2023-08-12T23:56:47;23.90;64.70
